Gmund, Austria
Current Conditions -  °F | °C
As of 1:20 PM on Wednesday 26 Nov 2014 (Local Time) from LOWL Reporting Station
Broken Clouds Broken Clouds  
Wind Chill: 35°   Ceiling: 2200
Heat Index: 41°   Visibility: 6mi
Dew Point: 34°   Wind: 10mph
Humidity: 76%   Direction: 90°E
Pressure: 30.09"   Gusts: NA
Location:  48.77°N, 14.99°E
Report Text: LOWL 261120Z 09009KT 9999 FEW019 BKN022 05/01 Q1019 NOSIG
Loading
Personal Weather Stations






























Interactive Weather Map New forecast layout! Learn more

10-Day Weather Forecast

Advertisements
Track Severe Weather on mobile